Time;durP1;ratioP1;P1;durP2;ratioP2;P2;SDS_P1;SDS_P2;PMS_P1;PMS_P2;Temp;Humidity;BMP_temperature;BMP_pressure;BME280_temperature;BME280_humidity;BME280_pressure;Samples;Min_cycle;Max_cycle;Signal;HPM_P1;HPM_P2
2023/08/17 00:00:49;;;;;;;63.97;25.27;;;;;;;19.33;100.00;97543.03;5071933;28;20404;-72
2023/08/17 00:03:15;;;;;;;57.92;23.77;;;;;;;19.34;100.00;97549.22;5072137;28;20466;-72
2023/08/17 00:05:41;;;;;;;58.30;23.10;;;;;;;19.35;100.00;97548.13;5072157;28;20403;-72
2023/08/17 00:08:07;;;;;;;52.58;21.95;;;;;;;19.37;100.00;97553.97;5072098;28;20418;-72
2023/08/17 00:10:34;;;;;;;49.45;20.17;;;;;;;19.40;100.00;97542.63;5071676;28;20407;-72
2023/08/17 00:13:02;;;;;;;44.97;19.30;;;;;;;19.41;100.00;97546.91;5071662;28;20826;-72
2023/08/17 00:15:29;;;;;;;54.03;21.55;;;;;;;19.42;100.00;97556.53;5071734;28;20421;-72
2023/08/17 00:17:55;;;;;;;55.08;21.67;;;;;;;19.40;100.00;97550.69;5071699;28;20903;-72
2023/08/17 00:20:22;;;;;;;51.60;20.63;;;;;;;19.37;100.00;97548.63;5071643;28;20436;-72
2023/08/17 00:22:48;;;;;;;46.75;19.33;;;;;;;19.36;100.00;97548.91;5071716;28;20779;-72
2023/08/17 00:25:14;;;;;;;56.20;21.95;;;;;;;19.36;100.00;97555.06;5071684;28;20400;-72
2023/08/17 00:27:40;;;;;;;50.17;20.85;;;;;;;19.36;100.00;97560.44;5071761;28;20431;-72
2023/08/17 00:30:08;;;;;;;50.63;21.10;;;;;;;19.34;100.00;97552.69;5071470;28;20399;-72
2023/08/17 00:32:35;;;;;;;43.20;18.63;;;;;;;19.33;100.00;97545.72;5071427;28;20407;-72
2023/08/17 00:35:02;;;;;;;41.80;17.83;;;;;;;19.32;100.00;97543.38;5071473;28;20906;-72
2023/08/17 00:37:28;;;;;;;40.00;16.98;;;;;;;19.28;100.00;97534.31;5071606;28;20400;-72
2023/08/17 00:39:54;;;;;;;43.13;18.88;;;;;;;19.24;100.00;97527.97;5071359;28;20869;-72
2023/08/17 00:42:20;;;;;;;43.30;17.08;;;;;;;19.23;100.00;97521.03;5071404;28;20904;-72
2023/08/17 00:44:46;;;;;;;45.00;17.23;;;;;;;19.21;100.00;97524.00;5071439;28;20469;-72
2023/08/17 00:47:13;;;;;;;36.38;16.40;;;;;;;19.23;100.00;97529.06;5071391;28;20429;-72
2023/08/17 00:49:41;;;;;;;38.22;16.80;;;;;;;19.21;100.00;97536.63;5071103;28;20461;-72
2023/08/17 00:52:07;;;;;;;38.38;16.23;;;;;;;19.19;100.00;97528.09;5071172;28;20487;-72
2023/08/17 00:54:34;;;;;;;39.33;16.23;;;;;;;19.19;100.00;97522.72;5071115;28;20453;-72
2023/08/17 00:57:01;;;;;;;42.35;18.35;;;;;;;19.17;100.00;97519.56;5070837;28;20412;-72
2023/08/17 00:59:28;;;;;;;41.30;17.27;;;;;;;19.10;100.00;97521.84;5070733;28;21029;-72
2023/08/17 01:01:54;;;;;;;42.22;17.10;;;;;;;19.07;100.00;97520.56;5070744;28;20407;-72
2023/08/17 01:04:21;;;;;;;43.08;17.30;;;;;;;19.04;100.00;97512.31;5070920;28;20754;-72
2023/08/17 01:06:49;;;;;;;37.25;15.95;;;;;;;19.01;100.00;97512.94;5071102;28;20787;-72
2023/08/17 01:09:15;;;;;;;34.07;15.43;;;;;;;19.00;100.00;97517.50;5070688;28;20802;-72
2023/08/17 01:11:49;;;;;;;37.45;15.57;;;;;;;18.98;100.00;97522.38;5070616;28;20407;-72
2023/08/17 01:14:21;;;;;;;30.90;14.23;;;;;;;18.96;100.00;97521.88;5070749;28;20394;-72
2023/08/17 01:16:50;;;;;;;29.35;13.68;;;;;;;18.99;100.00;97523.16;5070547;28;20438;-72
2023/08/17 01:19:24;;;;;;;33.35;13.68;;;;;;;19.03;100.00;97524.94;5070778;28;20655;-72
2023/08/17 01:21:56;;;;;;;27.15;12.95;;;;;;;19.11;100.00;97526.91;5070634;28;20419;-72
2023/08/17 01:24:24;;;;;;;32.92;14.98;;;;;;;19.16;100.00;97517.97;5070640;28;20434;-72
2023/08/17 01:26:50;;;;;;;33.83;15.15;;;;;;;19.18;100.00;97523.81;5070427;28;20403;-72
2023/08/17 01:29:16;;;;;;;32.90;14.55;;;;;;;19.17;100.00;97522.25;5070367;28;20415;-72
2023/08/17 01:31:49;;;;;;;32.40;14.52;;;;;;;19.17;100.00;97522.25;5070403;28;20743;-72
2023/08/17 01:34:23;;;;;;;27.27;13.05;;;;;;;19.20;100.00;97524.31;5070619;28;20434;-72
2023/08/17 01:36:55;;;;;;;28.40;12.85;;;;;;;19.24;100.00;97519.94;5070436;28;20913;-72
2023/08/17 01:39:27;;;;;;;31.25;13.00;;;;;;;19.28;100.00;97520.91;5070388;28;20810;-72
2023/08/17 01:41:56;;;;;;;29.88;14.65;;;;;;;19.32;100.00;97516.53;5070353;28;20434;-72
2023/08/17 01:44:23;;;;;;;30.23;13.45;;;;;;;19.31;100.00;97513.03;5052416;28;20411;-72
2023/08/17 01:46:49;;;;;;;29.80;13.38;;;;;;;19.32;100.00;97513.84;5070335;28;20391;-72
2023/08/17 01:49:15;;;;;;;29.27;13.55;;;;;;;19.37;100.00;97512.91;5070194;28;20403;-72
2023/08/17 01:51:41;;;;;;;31.48;13.63;;;;;;;19.39;100.00;97508.84;5070166;28;20486;-72
2023/08/17 01:54:08;;;;;;;30.77;14.23;;;;;;;19.40;100.00;97513.09;5070340;28;20791;-72
2023/08/17 01:56:35;;;;;;;33.55;14.38;;;;;;;19.42;100.00;97518.16;5069989;28;20443;-72
2023/08/17 01:59:02;;;;;;;30.98;14.68;;;;;;;19.42;100.00;97518.16;5069622;28;20414;-72
2023/08/17 02:01:30;;;;;;;32.83;14.60;;;;;;;19.44;100.00;97514.09;5069318;28;21320;-72
2023/08/17 02:03:56;;;;;;;30.60;14.32;;;;;;;19.44;100.00;97519.44;5070036;28;20940;-72
2023/08/17 02:06:22;;;;;;;29.55;13.30;;;;;;;19.44;100.00;97514.09;5070191;28;20404;-72
2023/08/17 02:08:48;;;;;;;33.95;14.73;;;;;;;19.45;100.00;97510.31;5051912;28;20439;-72
2023/08/17 02:11:14;;;;;;;35.10;15.65;;;;;;;19.46;100.00;97506.53;5072979;28;20414;-72
2023/08/17 02:13:42;;;;;;;30.30;14.20;;;;;;;19.47;100.00;97500.06;5074259;28;20392;-72
2023/08/17 02:16:08;;;;;;;31.20;13.25;;;;;;;19.47;100.00;97499.28;5074312;28;20415;-72
2023/08/17 02:18:34;;;;;;;24.98;12.48;;;;;;;19.49;100.00;97494.41;5074264;28;20414;-72
2023/08/17 02:21:01;;;;;;;26.52;11.70;;;;;;;19.51;100.00;97497.56;5073757;28;20755;-72
2023/08/17 02:23:27;;;;;;;28.35;12.85;;;;;;;19.52;100.00;97486.53;5074166;28;20410;-72
2023/08/17 02:25:53;;;;;;;26.95;12.60;;;;;;;19.51;100.00;97492.19;5073983;28;20406;-72
2023/08/17 02:28:19;;;;;;;28.98;12.27;;;;;;;19.52;100.00;97483.06;5073895;28;20396;-72
2023/08/17 02:30:48;;;;;;;27.88;12.30;;;;;;;19.54;100.00;97480.88;5073538;28;20461;-72
2023/08/17 02:33:15;;;;;;;28.95;12.13;;;;;;;19.56;100.00;97487.50;5073864;28;20749;-72
2023/08/17 02:35:41;;;;;;;26.60;11.95;;;;;;;19.56;100.00;97484.81;5073867;28;20419;-72
2023/08/17 02:38:07;;;;;;;25.73;11.13;;;;;;;19.56;100.00;97490.19;5074029;28;20408;-72
2023/08/17 02:40:33;;;;;;;27.67;11.93;;;;;;;19.57;100.00;97482.91;5055846;28;20842;-72
2023/08/17 02:42:59;;;;;;;28.17;11.37;;;;;;;19.57;100.00;97481.03;5073565;28;20403;-72
2023/08/17 02:45:26;;;;;;;35.38;13.45;;;;;;;19.57;100.00;97483.72;5073684;28;20400;-72
2023/08/17 02:47:53;;;;;;;43.03;14.60;;;;;;;19.57;100.00;97472.97;5073594;28;20411;-72
2023/08/17 02:50:19;;;;;;;49.67;17.33;;;;;;;19.59;100.00;97475.34;5073539;28;20476;-72
2023/08/17 02:52:45;;;;;;;65.05;20.40;;;;;;;19.58;100.00;97477.25;5073384;28;20482;-72
2023/08/17 02:55:11;;;;;;;67.15;19.52;;;;;;;19.56;100.00;97465.22;5073449;28;20407;-73
2023/08/17 02:57:38;;;;;;;72.38;20.80;;;;;;;19.53;100.00;97463.16;5073322;28;20408;-72
2023/08/17 03:00:05;;;;;;;68.78;19.60;;;;;;;19.50;100.00;97458.41;5073131;28;20963;-72
2023/08/17 03:02:31;;;;;;;62.80;18.40;;;;;;;19.49;100.00;97464.84;5073204;28;20433;-73
2023/08/17 03:04:59;;;;;;;69.85;19.92;;;;;;;19.48;100.00;97465.94;5073238;28;20431;-72
2023/08/17 03:07:25;;;;;;;67.30;18.27;;;;;;;19.48;100.00;97464.06;5073345;28;20414;-73
2023/08/17 03:09:51;;;;;;;60.67;17.63;;;;;;;19.48;100.00;97460.59;5072921;28;20750;-72
2023/08/17 03:12:18;;;;;;;58.05;17.13;;;;;;;19.48;100.00;97449.84;5078044;28;20394;-72
2023/08/17 03:14:44;;;;;;;66.00;17.67;;;;;;;19.48;100.00;97447.94;5093231;28;20455;-72
2023/08/17 03:17:10;;;;;;;72.65;20.52;;;;;;;19.48;100.00;97447.16;5093398;28;20410;-72
2023/08/17 03:19:36;;;;;;;69.70;19.60;;;;;;;19.46;100.00;97442.09;5093078;28;20806;-73
2023/08/17 03:22:04;;;;;;;72.15;19.98;;;;;;;19.45;100.00;97437.81;5092985;28;20406;-73
2023/08/17 03:24:30;;;;;;;61.40;18.35;;;;;;;19.44;100.00;97448.84;5093196;28;20414;-73
2023/08/17 03:26:56;;;;;;;64.53;18.33;;;;;;;19.43;100.00;97441.91;5074903;28;20530;-73
2023/08/17 03:29:22;;;;;;;70.47;19.08;;;;;;;19.43;100.00;97436.53;5092900;28;20441;-72
2023/08/17 03:31:49;;;;;;;72.07;19.10;;;;;;;19.41;100.00;97436.81;5092847;28;20771;-73
2023/08/17 03:34:16;;;;;;;60.83;17.60;;;;;;;19.41;100.00;97441.41;5093041;28;20779;-73
2023/08/17 03:36:42;;;;;;;90.03;23.20;;;;;;;19.40;100.00;97437.13;5092779;28;20417;-72
2023/08/17 03:39:10;;;;;;;87.35;21.48;;;;;;;19.38;100.00;97431.28;5092804;28;20406;-73
2023/08/17 03:41:36;;;;;;;82.30;20.98;;;;;;;19.37;100.00;97435.88;5092701;28;20402;-73
2023/08/17 03:44:05;;;;;;;73.10;20.00;;;;;;;19.36;100.00;97436.16;5092684;28;20402;-71
2023/08/17 03:46:31;;;;;;;84.45;21.00;;;;;;;19.35;100.00;97443.44;5092844;28;20901;-72
2023/08/17 03:48:58;;;;;;;77.28;21.20;;;;;;;19.33;100.00;97437.56;5092506;28;20405;-72
2023/08/17 03:51:24;;;;;;;73.60;20.27;;;;;;;19.30;100.00;97438.97;5092620;28;20915;-72
2023/08/17 03:53:50;;;;;;;69.30;17.77;;;;;;;19.29;100.00;97450.03;5092604;28;20844;-73
2023/08/17 03:56:18;;;;;;;79.32;20.63;;;;;;;19.28;100.00;97449.22;5092394;28;20455;-73
2023/08/17 03:58:44;;;;;;;97.65;23.80;;;;;;;19.27;100.00;97455.69;5092288;28;20404;-72
2023/08/17 04:01:11;;;;;;;98.25;23.65;;;;;;;19.27;100.00;97458.38;5092380;28;20409;-73
2023/08/17 04:03:37;;;;;;;76.63;20.42;;;;;;;19.27;100.00;97455.69;5092437;28;20848;-73
2023/08/17 04:06:06;;;;;;;68.40;18.40;;;;;;;19.30;100.00;97459.66;5092365;28;20725;-73
2023/08/17 04:08:32;;;;;;;71.38;17.75;;;;;;;19.29;100.00;97461.56;5092387;28;20400;-73
2023/08/17 04:10:58;;;;;;;63.78;17.58;;;;;;;19.28;100.00;97461.84;5091856;28;20763;-72
2023/08/17 04:13:27;;;;;;;70.22;18.38;;;;;;;19.28;100.00;97468.00;5092190;28;20401;-73
2023/08/17 04:15:53;;;;;;;67.45;17.88;;;;;;;19.29;100.00;97469.59;5092012;28;20413;-73
2023/08/17 04:18:19;;;;;;;92.72;21.25;;;;;;;19.31;100.00;97469.31;5092174;28;20467;-73
2023/08/17 04:20:45;;;;;;;86.47;22.67;;;;;;;19.29;100.00;97466.13;5091862;28;20398;-73
2023/08/17 04:23:11;;;;;;;105.27;27.30;;;;;;;19.28;100.00;97472.59;5092101;28;20409;-73
2023/08/17 04:25:38;;;;;;;96.38;25.20;;;;;;;19.25;100.00;97476.66;5092001;28;20398;-72
2023/08/17 04:28:04;;;;;;;85.93;23.63;;;;;;;19.23;100.00;97481.56;5080474;28;20482;-72
2023/08/17 04:30:32;;;;;;;111.85;25.63;;;;;;;19.21;100.00;97483.75;5071574;28;20404;-73
2023/08/17 04:32:58;;;;;;;98.57;23.63;;;;;;;19.19;100.00;97479.78;5070980;28;20502;-73
2023/08/17 04:35:24;;;;;;;92.47;23.13;;;;;;;19.18;100.00;97483.56;5071570;28;20905;-72
2023/08/17 04:37:52;;;;;;;76.80;19.33;;;;;;;19.19;100.00;97482.47;5071495;28;20465;-73
2023/08/17 04:40:18;;;;;;;132.32;28.17;;;;;;;19.18;100.00;97476.28;5071426;28;20453;-73
2023/08/17 04:42:44;;;;;;;107.60;25.05;;;;;;;19.18;100.00;97475.50;5071308;28;20407;-73
2023/08/17 04:45:10;;;;;;;99.63;23.40;;;;;;;19.17;100.00;97482.75;5071633;28;20876;-72
2023/08/17 04:47:39;;;;;;;70.38;19.10;;;;;;;19.19;100.00;97477.88;5071289;28;20408;-72
2023/08/17 04:50:06;;;;;;;74.80;18.80;;;;;;;19.21;100.00;97480.28;5071053;28;20404;-72
2023/08/17 04:52:32;;;;;;;96.25;22.25;;;;;;;19.21;100.00;97475.69;5071246;28;20808;-72
2023/08/17 04:54:59;;;;;;;100.53;23.27;;;;;;;19.20;100.00;97487.53;5071156;28;20408;-72
2023/08/17 04:57:26;;;;;;;89.80;21.80;;;;;;;19.19;100.00;97488.63;5071167;28;20434;-72
2023/08/17 04:59:52;;;;;;;83.50;20.80;;;;;;;19.21;100.00;97486.44;5071120;28;20427;-72
2023/08/17 05:02:18;;;;;;;67.18;17.85;;;;;;;19.24;100.00;97487.72;5070977;28;20410;-72
2023/08/17 05:04:47;;;;;;;101.38;21.80;;;;;;;19.23;100.00;97489.63;5070959;28;20761;-72
2023/08/17 05:07:13;;;;;;;80.57;19.30;;;;;;;19.25;100.00;97494.66;5071040;28;20396;-72
2023/08/17 05:09:39;;;;;;;85.35;19.92;;;;;;;19.24;100.00;97487.72;5070755;28;20757;-72
2023/08/17 05:12:06;;;;;;;87.20;20.33;;;;;;;19.25;100.00;97486.59;5070893;28;20404;-72
2023/08/17 05:14:32;;;;;;;76.85;17.80;;;;;;;19.27;100.00;97487.91;5070759;28;20469;-72
2023/08/17 05:16:58;;;;;;;72.60;17.83;;;;;;;19.33;100.00;97491.25;5070607;28;20439;-72
2023/08/17 05:19:25;;;;;;;70.38;17.42;;;;;;;19.36;100.00;97489.84;5070589;28;20402;-72
2023/08/17 05:21:53;;;;;;;80.07;18.77;;;;;;;19.39;100.00;97500.00;5070622;28;20897;-72
2023/08/17 05:24:20;;;;;;;70.45;17.75;;;;;;;19.39;100.00;97500.78;5070655;28;20406;-72
2023/08/17 05:26:46;;;;;;;79.15;18.50;;;;;;;19.40;100.00;97504.25;5070563;28;20402;-72
2023/08/17 05:29:12;;;;;;;84.97;19.60;;;;;;;19.39;100.00;97505.38;5070634;28;20796;-72
2023/08/17 05:31:39;;;;;;;73.38;17.58;;;;;;;19.39;100.00;97503.47;5070610;28;20494;-72
2023/08/17 05:34:05;;;;;;;67.90;16.48;;;;;;;19.41;100.00;97495.88;5070568;28;20403;-72
2023/08/17 05:36:31;;;;;;;59.80;16.00;;;;;;;19.44;100.00;97507.91;5070715;28;20415;-72
2023/08/17 05:38:58;;;;;;;59.50;16.42;;;;;;;19.46;100.00;97505.72;5070468;28;20901;-72
2023/08/17 05:41:25;;;;;;;66.23;16.27;;;;;;;19.50;100.00;97509.41;5070446;28;20404;-72
2023/08/17 05:43:51;;;;;;;64.20;16.25;;;;;;;19.53;100.00;97498.88;5070115;28;20415;-72
2023/08/17 05:46:17;;;;;;;66.90;17.30;;;;;;;19.57;100.00;97505.19;5069797;28;20448;-72
2023/08/17 05:48:43;;;;;;;65.63;18.20;;;;;;;19.59;100.00;97502.22;5070298;28;20407;-72
2023/08/17 05:51:10;;;;;;;75.63;19.42;;;;;;;19.60;100.00;97491.16;5070417;28;20395;-72
2023/08/17 05:53:36;;;;;;;64.75;17.60;;;;;;;19.63;100.00;97498.59;5070440;28;20407;-72
2023/08/17 05:56:03;;;;;;;107.82;25.52;;;;;;;19.63;100.00;97495.91;5069999;28;20885;-72
2023/08/17 05:58:30;;;;;;;116.72;27.20;;;;;;;19.62;100.00;97497.00;5070282;28;20422;-72
2023/08/17 06:01:05;;;;;;;100.07;23.27;;;;;;;19.64;100.00;97496.72;5070111;28;20400;-72
2023/08/17 06:03:31;;;;;;;127.87;28.07;;;;;;;19.65;100.00;97503.66;5070298;28;20458;-72
2023/08/17 06:05:57;;;;;;;110.15;25.83;;;;;;;19.65;100.00;97504.47;5070164;28;20432;-72
2023/08/17 06:08:23;;;;;;;97.43;24.05;;;;;;;19.67;100.00;97504.97;5070217;28;20865;-72
2023/08/17 06:10:49;;;;;;;89.90;21.73;;;;;;;19.70;100.00;97520.44;5069871;28;20453;-73
2023/08/17 06:13:17;;;;;;;77.13;19.67;;;;;;;19.77;100.00;97514.66;5070223;28;20408;-73
2023/08/17 06:15:43;;;;;;;76.68;20.35;;;;;;;19.82;100.00;97516.41;5070025;28;20897;-73
2023/08/17 06:18:09;;;;;;;79.30;21.20;;;;;;;19.85;100.00;97519.25;5082310;28;20426;-73
2023/08/17 06:20:36;;;;;;;113.43;27.75;;;;;;;19.85;100.00;97521.94;5090405;28;20474;-73
2023/08/17 06:23:02;;;;;;;92.75;24.20;;;;;;;19.86;100.00;97523.53;5090175;28;20493;-73
2023/08/17 06:25:28;;;;;;;100.45;25.23;;;;;;;19.88;100.00;97517.88;5090253;28;20409;-72
2023/08/17 06:27:55;;;;;;;76.65;21.95;;;;;;;19.93;100.00;97521.22;5090474;28;20903;-72
2023/08/17 06:30:23;;;;;;;89.80;26.23;;;;;;;19.95;100.00;97519.03;5090251;28;20883;-72
2023/08/17 06:32:51;;;;;;;110.13;28.55;;;;;;;19.97;100.00;97516.81;5090266;28;20402;-72
2023/08/17 06:35:17;;;;;;;153.43;35.40;;;;;;;19.96;100.00;97515.22;5090078;28;20402;-72
2023/08/17 06:37:43;;;;;;;109.78;29.98;;;;;;;20.00;100.00;97512.72;5090049;28;20447;-72
2023/08/17 06:40:11;;;;;;;87.03;25.05;;;;;;;20.06;100.00;97512.28;5090042;28;20394;-72
2023/08/17 06:42:37;;;;;;;86.95;26.23;;;;;;;20.13;100.00;97508.38;5090115;28;20436;-71
2023/08/17 06:45:05;;;;;;;102.03;30.13;;;;;;;20.14;100.00;97507.25;5090280;28;20409;-72
2023/08/17 06:47:32;;;;;;;90.93;25.90;;;;;;;20.19;100.00;97507.91;5089977;28;20455;-72
2023/08/17 06:49:59;;;;;;;62.25;21.25;;;;;;;20.27;100.00;97504.47;5090032;28;20409;-71
2023/08/17 06:52:25;;;;;;;60.38;19.92;;;;;;;20.34;100.00;97510.22;5089752;28;20467;-72
2023/08/17 06:54:51;;;;;;;50.85;17.20;;;;;;;20.42;100.00;97509.47;5089859;28;20406;-71
2023/08/17 06:57:18;;;;;;;50.53;16.95;;;;;;;20.48;100.00;97508.22;5092557;28;20420;-71
2023/08/17 06:59:45;;;;;;;51.20;16.65;;;;;;;20.54;100.00;97510.75;5093585;28;20814;-71
2023/08/17 07:02:12;;;;;;;47.90;15.93;;;;;;;20.62;100.00;97507.28;5093621;28;20482;-72
2023/08/17 07:04:39;;;;;;;54.60;16.88;;;;;;;20.66;100.00;97519.03;5093770;28;20437;-72
2023/08/17 07:07:05;;;;;;;60.75;18.30;;;;;;;20.65;100.00;97509.38;5093337;28;20409;-71
2023/08/17 07:09:32;;;;;;;57.65;18.33;;;;;;;20.71;100.00;97514.28;5093383;28;20840;-72
2023/08/17 07:11:58;;;;;;;63.63;18.92;;;;;;;20.73;100.00;97511.28;5093198;28;20398;-72
2023/08/17 07:14:24;;;;;;;61.25;18.83;;;;;;;20.73;100.00;97517.47;5093332;28;20451;-72
2023/08/17 07:16:50;;;;;;;52.88;17.55;;;;;;;20.77;100.00;97513.03;5093237;28;20414;-71
2023/08/17 07:19:17;;;;;;;66.15;21.23;;;;;;;20.84;100.00;97515.25;5093155;28;20471;-72
2023/08/17 07:21:44;;;;;;;86.90;23.10;;;;;;;20.86;100.00;97519.22;5093154;28;20394;-71
2023/08/17 07:24:15;;;;;;;59.05;18.27;;;;;;;20.89;100.00;97519.72;5093117;28;20402;-71
2023/08/17 07:26:42;;;;;;;64.10;19.38;;;;;;;20.83;100.00;97519.84;5093161;28;20957;-72
2023/08/17 07:29:08;;;;;;;69.37;20.83;;;;;;;20.84;100.00;97515.25;5093242;28;20831;-72
2023/08/17 07:31:37;;;;;;;61.97;19.35;;;;;;;20.85;100.00;97517.63;5093005;28;20402;-71
2023/08/17 07:34:03;;;;;;;53.85;18.42;;;;;;;20.91;100.00;97514.78;5092873;28;20876;-71
2023/08/17 07:36:30;;;;;;;51.65;17.15;;;;;;;20.95;100.00;97521.13;5092776;28;20414;-72
2023/08/17 07:38:57;;;;;;;41.75;15.50;;;;;;;21.01;100.00;97517.19;5092642;28;20403;-71
2023/08/17 07:41:23;;;;;;;83.15;25.17;;;;;;;21.02;100.00;97521.47;5092757;28;20398;-72
2023/08/17 07:43:50;;;;;;;55.57;20.40;;;;;;;21.12;100.00;97521.97;5092711;28;20475;-71
2023/08/17 07:46:16;;;;;;;52.10;18.75;;;;;;;21.15;100.00;97526.69;5092791;28;20952;-71
2023/08/17 07:48:42;;;;;;;38.00;16.05;;;;;;;21.17;100.00;97526.41;5092464;28;20588;-71
2023/08/17 07:51:08;;;;;;;41.92;16.50;;;;;;;21.20;100.00;97518.47;5092574;28;20413;-71
2023/08/17 07:53:35;;;;;;;28.33;13.02;;;;;;;21.27;100.00;97519.94;5092272;28;20408;-71
2023/08/17 07:56:02;;;;;;;22.05;11.20;;;;;;;21.37;100.00;97514.22;5092078;28;20420;-71
2023/08/17 07:58:28;;;;;;;20.85;10.20;;;;;;;21.47;100.00;97509.31;5092592;28;20402;-72
2023/08/17 08:00:55;;;;;;;21.02;10.18;;;;;;;21.49;100.00;97514.38;5092070;28;20646;-71
2023/08/17 08:03:21;;;;;;;18.40;9.70;;;;;;;21.50;100.00;97503.28;5092510;28;20683;-71
2023/08/17 08:05:47;;;;;;;17.08;8.75;;;;;;;21.61;100.00;97509.13;5092234;28;20430;-71
2023/08/17 08:08:14;;;;;;;15.00;8.40;;;;;;;21.72;100.00;97507.69;5091322;28;20402;-71
2023/08/17 08:10:41;;;;;;;17.50;8.98;;;;;;;21.80;100.00;97508.78;5092150;28;20805;-72
2023/08/17 08:13:08;;;;;;;18.02;9.25;;;;;;;21.88;100.00;97507.97;5092080;28;20426;-71
2023/08/17 08:15:34;;;;;;;15.13;9.02;;;;;;;21.97;100.00;97506.06;5092064;28;20420;-72
2023/08/17 08:18:01;;;;;;;13.93;8.75;;;;;;;22.07;100.00;97500.34;5092071;28;20402;-72
2023/08/17 08:20:27;;;;;;;12.77;8.05;;;;;;;22.21;100.00;97495.53;5091847;28;20449;-71
2023/08/17 08:22:53;;;;;;;14.25;8.52;;;;;;;22.25;100.00;97498.38;5091932;28;20406;-72
2023/08/17 08:25:19;;;;;;;16.60;10.40;;;;;;;22.14;100.00;97495.25;5092182;28;20756;-72
2023/08/17 08:27:45;;;;;;;16.13;10.10;;;;;;;22.07;100.00;97489.56;5091743;28;20394;-72
2023/08/17 08:30:13;;;;;;;13.02;8.10;;;;;;;22.12;100.00;97497.47;5091847;28;20885;-72
2023/08/17 08:32:39;;;;;;;11.23;7.80;;;;;;;22.27;100.00;97493.44;5091849;28;20910;-72
2023/08/17 08:35:06;;;;;;;8.07;6.32;;;;;;;22.42;100.00;97494.78;5091694;28;20405;-72
2023/08/17 08:37:33;;;;;;;7.25;6.10;;;;;;;22.55;100.00;97499.97;5091925;28;20799;-72
2023/08/17 08:39:59;;;;;;;6.90;5.67;;;;;;;22.67;100.00;97491.97;5091626;28;20402;-71
2023/08/17 08:42:25;;;;;;;8.73;6.47;;;;;;;22.78;100.00;97495.88;5091774;28;20405;-72
2023/08/17 08:44:52;;;;;;;7.20;6.10;;;;;;;22.92;100.00;97489.47;5091889;28;20539;-71
2023/08/17 08:47:20;;;;;;;7.57;5.63;;;;;;;23.03;100.00;97488.75;5091797;28;20886;-72
2023/08/17 08:49:58;;;;;;;6.10;5.47;;;;;;;23.19;100.00;97491.63;5091453;28;20846;-71
2023/08/17 08:52:32;;;;;;;8.13;6.03;;;;;;;23.31;100.00;97488.19;5091552;28;20903;-72
2023/08/17 08:55:02;;;;;;;7.53;6.60;;;;;;;23.28;100.00;97489.66;5091579;28;20405;-72
2023/08/17 08:57:29;;;;;;;6.50;5.78;;;;;;;23.36;100.00;97482.59;5091300;28;20497;-72
2023/08/17 08:59:56;;;;;;;6.45;5.53;;;;;;;23.49;100.00;97487.75;5091363;28;20764;-72
2023/08/17 09:02:24;;;;;;;5.72;5.13;;;;;;;23.64;100.00;97493.66;5091487;28;20409;-72
2023/08/17 09:04:51;;;;;;;5.45;4.85;;;;;;;23.75;100.00;97481.31;5091311;28;20481;-72
2023/08/17 09:07:19;;;;;;;8.40;7.10;;;;;;;23.75;100.00;97484.81;5091806;28;20508;-72
2023/08/17 09:09:45;;;;;;;14.48;7.22;;;;;;;23.73;100.00;97484.34;5091233;28;20480;-72
2023/08/17 09:12:12;;;;;;;10.90;8.18;;;;;;;23.72;100.00;97479.25;5091224;28;20421;-72
2023/08/17 09:14:39;;;;;;;7.15;6.45;;;;;;;23.71;100.00;97480.38;5091216;28;20409;-72
2023/08/17 09:17:05;;;;;;;7.13;6.40;;;;;;;23.72;100.00;97476.56;5091035;28;20417;-72
2023/08/17 09:19:34;;;;;;;6.35;5.75;;;;;;;23.75;100.00;97475.91;5091111;28;20467;-72
2023/08/17 09:22:01;;;;;;;7.53;6.03;;;;;;;23.85;100.00;97476.25;5090816;28;20401;-72
2023/08/17 09:24:35;;;;;;;6.57;5.30;;;;;;;24.03;100.00;97476.06;5091114;28;20422;-72
2023/08/17 09:27:01;;;;;;;5.20;4.55;;;;;;;24.24;100.00;97477.59;5090905;28;20386;-72
2023/08/17 09:29:27;;;;;;;4.13;3.72;;;;;;;24.51;100.00;97483.47;5090647;28;20398;-73
2023/08/17 09:31:54;;;;;;;4.85;4.05;;;;;;;24.72;100.00;97478.72;5090604;28;20756;-73
2023/08/17 09:34:20;;;;;;;4.23;3.83;;;;;;;24.92;100.00;97472.38;5090742;28;20772;-73
2023/08/17 09:36:48;;;;;;;3.70;3.30;;;;;;;25.16;100.00;97471.53;5090547;28;20413;-73
2023/08/17 09:39:17;;;;;;;4.13;3.72;;;;;;;25.27;100.00;97471.81;5090571;28;20398;-73
2023/08/17 09:41:44;;;;;;;4.13;3.70;;;;;;;25.41;100.00;97475.72;5090397;28;20429;-72
2023/08/17 09:44:12;;;;;;;4.10;3.70;;;;;;;25.55;100.00;97469.91;5090553;28;20394;-73
2023/08/17 09:46:38;;;;;;;3.97;3.58;;;;;;;25.72;100.00;97476.94;5090440;28;20394;-73
2023/08/17 09:49:06;;;;;;;5.00;4.40;;;;;;;25.68;100.00;97473.38;5090342;28;20412;-73
2023/08/17 09:51:33;;;;;;;4.25;3.85;;;;;;;25.68;100.00;97476.09;5090519;28;20741;-73
2023/08/17 09:54:01;;;;;;;4.60;3.90;;;;;;;25.60;100.00;97477.81;5090365;28;20405;-73
2023/08/17 09:56:28;;;;;;;4.10;3.70;;;;;;;25.55;100.00;97471.84;5090276;28;20413;-73
2023/08/17 09:58:54;;;;;;;4.88;4.25;;;;;;;25.56;100.00;97474.19;5090204;28;20422;-73
2023/08/17 10:01:23;;;;;;;4.10;3.53;;;;;;;25.57;100.00;97473.03;5090212;28;20402;-73
2023/08/17 10:03:51;;;;;;;4.10;3.70;;;;;;;25.67;100.00;97471.78;5090240;28;20402;-73
2023/08/17 10:06:20;;;;;;;4.13;3.75;;;;;;;25.77;100.00;97469.38;5090309;28;20390;-73
2023/08/17 10:08:49;;;;;;;4.43;4.03;;;;;;;25.68;100.00;97463.31;5090055;28;20398;-73
2023/08/17 10:11:21;;;;;;;5.15;4.40;;;;;;;25.52;100.00;97467.09;5090115;28;20401;-72
2023/08/17 10:13:53;;;;;;;7.15;6.45;;;;;;;25.30;100.00;97463.81;5090131;28;20405;-73
2023/08/17 10:16:26;;;;;;;8.65;7.80;;;;;;;25.29;100.00;97466.84;5090263;28;20413;-72
2023/08/17 10:18:59;;;;;;;8.63;7.37;;;;;;;25.39;100.00;97460.94;5090138;28;20463;-73
2023/08/17 10:21:32;;;;;;;6.22;5.63;;;;;;;25.55;100.00;97464.50;5090107;28;20405;-73
2023/08/17 10:23:58;;;;;;;10.18;6.60;;;;;;;25.53;100.00;97472.19;5090146;28;20402;-73
2023/08/17 10:26:27;;;;;;;6.65;5.70;;;;;;;25.54;100.00;97462.13;5090300;28;20425;-73
2023/08/17 10:28:55;;;;;;;7.30;5.70;;;;;;;25.53;100.00;97461.31;5090144;28;20851;-73
2023/08/17 10:31:21;;;;;;;6.07;5.47;;;;;;;25.61;100.00;97463.13;5091586;28;20401;-73
2023/08/17 10:33:48;;;;;;;5.28;4.70;;;;;;;25.70;100.00;97463.78;5094061;28;20406;-73
2023/08/17 10:36:15;;;;;;;5.40;4.65;;;;;;;25.84;100.00;97466.06;5094033;28;20490;-73
2023/08/17 10:38:41;;;;;;;5.30;4.70;;;;;;;25.95;100.00;97460.88;5094102;28;20432;-73
2023/08/17 10:41:09;;;;;;;5.07;4.57;;;;;;;26.04;100.00;97462.31;5093804;28;20398;-73
2023/08/17 10:43:54;;;;;;;4.93;4.43;;;;;;;26.20;100.00;97454.94;5093943;28;20476;-73
2023/08/17 10:46:20;;;;;;;5.32;4.60;;;;;;;26.12;100.00;97460.56;5093970;28;20418;-73
2023/08/17 10:48:46;;;;;;;5.35;4.75;;;;;;;25.98;100.00;97458.28;5093643;28;20398;-73
2023/08/17 10:51:13;;;;;;;6.75;5.28;;;;;;;25.77;100.00;97455.81;5093790;28;20477;-73
2023/08/17 10:53:45;;;;;;;6.43;5.80;;;;;;;25.62;100.00;97463.91;5093931;28;20883;-73
2023/08/17 10:56:13;;;;;;;5.27;4.77;;;;;;;25.69;100.00;97461.41;5093648;28;20421;-72
2023/08/17 10:58:44;;;;;;;5.20;4.70;;;;;;;25.85;100.00;97459.50;5093778;28;20459;-73
2023/08/17 11:01:10;;;;;;;5.80;5.20;;;;;;;26.03;100.00;97449.06;5093643;28;20429;-73
2023/08/17 11:03:37;;;;;;;5.60;5.00;;;;;;;26.20;100.00;97454.16;5093585;28;20389;-73
2023/08/17 11:06:17;;;;;;;5.47;4.65;;;;;;;26.39;100.00;97456.97;5093519;28;20416;-73
2023/08/17 11:08:55;;;;;;;4.88;4.47;;;;;;;26.60;100.00;97459.41;5093305;28;20416;-73
2023/08/17 11:11:25;;;;;;;5.25;4.75;;;;;;;26.82;100.00;97457.94;5093440;28;20390;-73